Terminal Aerodrome Forecast
Issued by NWS

Home | Current Version | Previous Version | Text Only | Print | Product List | Glossary Off
Versions: 1 2 3 4 5 6 7 8 9 10 11 12 13 14 15 16 17 18 19 20 21 22 23 24 25 26 27 28 29 30 31 32 33 34 35 36 37 38

000
FTUS43 KLOT 311408 AAB
TAFORD
TAF AMD
KORD 311408Z 3114/0118 28009KT P6SM FEW050 SCT090 BKN250
     FM311600 29014G24KT P6SM FEW080 FEW250
     FM010200 29007KT P6SM FEW200
     FM011600 27010G16KT P6SM SCT200=

USA.gov is the U.S. government's official web portal to all federal, state and local government web resources and services.